createdAt,value
2023-06-05T00:00:50.239Z,180.82
2023-06-05T00:01:50.353Z,180.40
2023-06-05T00:02:50.561Z,180.32
2023-06-05T00:03:50.659Z,180.70
2023-06-05T00:04:50.627Z,180.31
2023-06-05T00:05:50.679Z,179.85
2023-06-05T00:06:50.796Z,178.79
2023-06-05T00:07:50.857Z,178.46
2023-06-05T00:08:50.963Z,180.14
2023-06-05T00:09:51.053Z,178.56
2023-06-05T00:10:51.131Z,181.47
2023-06-05T00:11:51.236Z,178.08
2023-06-05T00:12:51.278Z,177.52
2023-06-05T00:13:51.349Z,180.58
2023-06-05T00:14:51.387Z,181.03
2023-06-05T00:15:51.525Z,181.69
2023-06-05T00:16:51.653Z,181.99
2023-06-05T00:17:51.727Z,183.30
2023-06-05T00:18:51.693Z,179.99
2023-06-05T00:19:51.752Z,177.22
2023-06-05T00:20:51.775Z,177.45
2023-06-05T00:21:51.878Z,176.11
2023-06-05T00:22:51.917Z,179.68
2023-06-05T00:23:52.046Z,176.68
2023-06-05T00:24:52.095Z,178.59
2023-06-05T00:25:52.137Z,179.40
2023-06-05T00:26:52.221Z,177.30
2023-06-05T00:27:52.338Z,179.01
2023-06-05T00:28:52.374Z,179.32
2023-06-05T00:29:52.496Z,182.38
2023-06-05T00:30:52.614Z,182.60
2023-06-05T00:31:52.740Z,181.84
2023-06-05T00:32:52.830Z,181.75
2023-06-05T00:33:52.905Z,183.86
2023-06-05T00:34:52.917Z,182.60
2023-06-05T00:35:52.995Z,186.25
2023-06-05T00:36:53.069Z,184.32
2023-06-05T00:37:53.097Z,183.82
2023-06-05T00:38:53.196Z,183.54
2023-06-05T00:39:53.239Z,182.05
2023-06-05T00:40:53.313Z,183.28
2023-06-05T00:41:53.373Z,182.27
2023-06-05T00:42:53.475Z,183.28
2023-06-05T00:43:53.497Z,181.80
2023-06-05T00:44:53.579Z,183.39
2023-06-05T00:45:53.662Z,183.69
2023-06-05T00:46:53.711Z,182.38
2023-06-05T00:47:53.841Z,186.02
2023-06-05T00:48:53.894Z,185.03
2023-06-05T00:49:53.973Z,184.17
2023-06-05T00:50:54.031Z,184.42
2023-06-05T00:51:54.066Z,182.10
2023-06-05T00:52:54.143Z,184.31
2023-06-05T00:53:54.167Z,184.14
2023-06-05T00:54:54.246Z,183.89
2023-06-05T00:55:54.292Z,185.09
2023-06-05T00:56:54.353Z,186.21
2023-06-05T00:57:54.382Z,184.44
2023-06-05T00:58:54.383Z,182.53
2023-06-05T00:59:54.490Z,180.89
2023-06-05T01:00:54.528Z,182.50
2023-06-05T01:01:54.587Z,183.42
2023-06-05T01:02:54.806Z,182.68
2023-06-05T01:03:54.621Z,183.32
2023-06-05T01:04:54.669Z,183.48
2023-06-05T01:05:54.715Z,183.60
2023-06-05T01:06:54.715Z,183.30
2023-06-05T01:07:54.737Z,183.84
2023-06-05T01:08:54.814Z,183.83
2023-06-05T01:09:54.845Z,182.56
2023-06-05T01:10:54.877Z,183.41
2023-06-05T01:11:54.901Z,183.65
2023-06-05T01:12:54.955Z,183.41
2023-06-05T01:13:54.942Z,183.59
2023-06-05T01:14:54.987Z,181.67
2023-06-05T01:15:55.033Z,185.33
2023-06-05T01:16:55.285Z,185.46
2023-06-05T01:17:55.110Z,186.32
2023-06-05T01:18:55.082Z,185.35
2023-06-05T01:19:55.127Z,186.90
2023-06-05T01:20:55.155Z,188.85
2023-06-05T01:21:55.205Z,187.58
2023-06-05T01:22:55.196Z,186.14
2023-06-05T01:23:55.331Z,186.60
2023-06-05T01:24:55.263Z,187.20
2023-06-05T01:25:55.285Z,187.10
2023-06-05T01:26:55.378Z,186.06
2023-06-05T01:27:55.427Z,186.74
2023-06-05T01:28:55.381Z,189.65
2023-06-05T01:29:55.432Z,187.96
2023-06-05T01:30:55.475Z,189.20
2023-06-05T01:31:55.478Z,189.49
2023-06-05T01:32:55.629Z,190.97
2023-06-05T01:33:55.552Z,192.02
2023-06-05T01:34:55.614Z,192.40
2023-06-05T01:35:55.590Z,193.79
2023-06-05T01:36:55.634Z,194.15
2023-06-05T01:37:55.696Z,193.15
2023-06-05T01:38:55.724Z,195.63
2023-06-05T01:39:55.750Z,195.01
2023-06-05T01:40:55.777Z,196.09
2023-06-05T01:41:55.824Z,194.43
2023-06-05T01:42:55.853Z,194.86
2023-06-05T01:43:55.871Z,197.08
2023-06-05T01:44:55.903Z,197.52
2023-06-05T01:45:55.938Z,198.85
2023-06-05T01:46:56.048Z,196.54
2023-06-05T01:47:56.074Z,196.30
2023-06-05T01:48:56.067Z,196.20
2023-06-05T01:49:56.160Z,194.25
2023-06-05T01:50:56.150Z,193.52
2023-06-05T01:51:56.152Z,193.26
2023-06-05T01:52:56.220Z,196.82
2023-06-05T01:53:56.236Z,198.87
2023-06-05T01:54:56.263Z,195.25
2023-06-05T01:55:56.295Z,194.45
2023-06-05T01:56:56.349Z,194.19
2023-06-05T01:58:32.828Z,50.00
2023-06-05T01:59:32.822Z,50.00
2023-06-05T02:00:32.830Z,50.00
2023-06-05T02:01:32.811Z,50.00
2023-06-05T02:02:32.846Z,50.00
2023-06-05T02:03:32.987Z,50.82
2023-06-05T02:04:32.775Z,50.90
2023-06-05T02:05:32.776Z,51.12
2023-06-05T02:06:32.806Z,53.43
2023-06-05T02:07:32.773Z,53.68
2023-06-05T02:08:32.795Z,51.08
2023-06-05T02:09:32.779Z,53.85
2023-06-05T02:10:32.795Z,50.11
2023-06-05T02:11:32.790Z,54.16
2023-06-05T02:12:32.806Z,57.48
2023-06-05T02:14:22.211Z,50.00
2023-06-05T02:15:22.209Z,50.00
2023-06-05T02:16:22.226Z,50.00
2023-06-05T02:17:22.201Z,50.00
2023-06-05T02:18:22.132Z,50.00
2023-06-05T02:19:22.147Z,50.45
2023-06-05T02:20:22.130Z,52.43
2023-06-05T02:21:22.085Z,50.40
2023-06-05T02:22:22.077Z,51.90
2023-06-05T02:23:22.074Z,50.38
2023-06-05T02:24:22.041Z,50.00
2023-06-05T02:25:22.072Z,51.67
2023-06-05T02:26:22.030Z,52.20
2023-06-05T02:27:21.965Z,50.69
2023-06-05T02:28:21.957Z,52.12
2023-06-05T02:29:21.970Z,52.88
2023-06-05T02:30:21.919Z,53.39
2023-06-05T02:31:21.898Z,52.34
2023-06-05T02:32:21.887Z,53.21
2023-06-05T02:33:21.846Z,53.70
2023-06-05T02:34:21.849Z,50.00
2023-06-05T02:35:21.839Z,52.73
2023-06-05T02:36:21.806Z,53.71
2023-06-05T02:37:21.802Z,54.41
2023-06-05T02:38:21.773Z,51.43
2023-06-05T02:39:21.761Z,52.56
2023-06-05T02:40:21.778Z,54.13
2023-06-05T02:41:21.726Z,54.59
2023-06-05T02:42:21.701Z,53.56
2023-06-05T02:43:21.681Z,52.58
2023-06-05T02:44:21.665Z,52.25
2023-06-05T02:45:21.683Z,52.00
2023-06-05T02:46:21.690Z,51.90
2023-06-05T02:47:21.643Z,53.90
2023-06-05T02:48:21.593Z,56.30
2023-06-05T02:49:21.603Z,54.40
2023-06-05T02:50:21.539Z,56.30
2023-06-05T02:51:21.495Z,51.83
2023-06-05T02:52:21.470Z,51.53
2023-06-05T02:53:21.483Z,52.66
2023-06-05T02:54:21.491Z,54.43
2023-06-05T02:55:21.452Z,54.84
2023-06-05T02:56:21.466Z,55.79
2023-06-05T02:57:21.427Z,57.01
2023-06-05T02:58:21.395Z,58.99
2023-06-05T02:59:21.355Z,58.64
2023-06-05T03:00:21.330Z,60.74
2023-06-05T03:01:21.393Z,57.22
2023-06-05T03:02:21.337Z,57.24
2023-06-05T03:03:21.433Z,60.65
2023-06-05T03:04:21.279Z,62.39
2023-06-05T03:05:21.224Z,65.07
2023-06-05T03:06:21.218Z,64.72
2023-06-05T03:07:21.200Z,65.77
2023-06-05T03:08:21.196Z,66.24
2023-06-05T03:09:21.170Z,67.69
2023-06-05T03:10:21.163Z,65.82
2023-06-05T03:11:21.109Z,64.71
2023-06-05T03:12:21.111Z,66.30
2023-06-05T03:13:21.097Z,66.33
2023-06-05T03:14:21.057Z,67.18
2023-06-05T03:15:21.040Z,70.44
2023-06-05T03:16:21.149Z,69.43
2023-06-05T03:17:21.114Z,70.77
2023-06-05T03:18:21.127Z,69.85
2023-06-05T03:19:21.143Z,70.88
2023-06-05T03:20:21.159Z,71.62
2023-06-05T03:21:21.208Z,71.54
2023-06-05T03:22:21.196Z,70.92
2023-06-05T03:23:21.253Z,69.08
2023-06-05T03:24:21.270Z,71.25
2023-06-05T03:25:21.275Z,70.51
2023-06-05T03:26:21.299Z,68.85
2023-06-05T03:27:21.303Z,70.69
2023-06-05T03:28:21.318Z,69.52
2023-06-05T03:29:21.346Z,68.15
2023-06-05T03:30:21.341Z,66.43
2023-06-05T03:31:21.407Z,66.97
2023-06-05T03:32:21.442Z,67.19
2023-06-05T03:33:21.488Z,69.39
2023-06-05T03:34:21.476Z,69.16
2023-06-05T03:35:21.493Z,68.52
2023-06-05T03:36:21.530Z,69.67
2023-06-05T03:37:21.535Z,70.47
2023-06-05T03:38:21.536Z,70.54
2023-06-05T03:39:21.550Z,71.00
2023-06-05T03:40:21.687Z,67.76
2023-06-05T03:41:21.606Z,69.55
2023-06-05T03:42:21.711Z,69.41
2023-06-05T03:43:21.713Z,69.14
2023-06-05T03:44:21.704Z,69.62
2023-06-05T03:45:21.754Z,72.94
2023-06-05T03:46:21.794Z,71.01
2023-06-05T03:47:21.755Z,71.67
2023-06-05T03:48:21.874Z,72.37
2023-06-05T03:49:21.848Z,72.72
2023-06-05T03:50:21.820Z,72.95
2023-06-05T03:51:21.859Z,70.49
2023-06-05T03:52:21.894Z,68.97
2023-06-05T03:53:21.907Z,69.69
2023-06-05T03:54:21.941Z,71.61
2023-06-05T03:55:21.964Z,71.15
2023-06-05T03:56:21.970Z,70.99
2023-06-05T03:57:22.010Z,71.51
2023-06-05T03:58:22.111Z,71.46
2023-06-05T03:59:22.066Z,69.66
2023-06-05T04:00:22.106Z,68.75
2023-06-05T04:01:22.132Z,69.80
2023-06-05T04:02:22.165Z,70.38
2023-06-05T04:04:01.626Z,50.00
2023-06-05T04:05:01.587Z,50.00
2023-06-05T04:06:01.634Z,50.00
2023-06-05T04:07:01.583Z,50.00
2023-06-05T04:08:01.590Z,50.00
2023-06-05T04:09:01.581Z,51.35
2023-06-05T04:10:01.551Z,50.00
2023-06-05T04:11:01.601Z,50.79
2023-06-05T04:12:01.569Z,50.94
2023-06-05T04:13:01.587Z,51.57
2023-06-05T04:14:01.540Z,52.29
2023-06-05T04:15:01.537Z,52.02
2023-06-05T04:16:01.524Z,52.65
2023-06-05T04:17:01.579Z,53.34
2023-06-05T04:18:01.605Z,52.61
2023-06-05T04:19:01.544Z,53.70
2023-06-05T04:20:01.547Z,50.53
2023-06-05T04:21:01.545Z,50.08
2023-06-05T04:22:01.487Z,53.36
2023-06-05T04:23:01.491Z,54.04
2023-06-05T04:24:01.577Z,54.04
2023-06-05T04:25:01.517Z,51.97
2023-06-05T04:26:01.503Z,52.84
2023-06-05T04:27:01.499Z,53.73
2023-06-05T04:28:01.451Z,52.60
2023-06-05T04:29:01.452Z,52.28
2023-06-05T04:30:01.458Z,52.49
2023-06-05T04:31:01.469Z,51.13
2023-06-05T04:32:01.416Z,51.66
2023-06-05T04:33:01.442Z,51.63
2023-06-05T04:34:01.383Z,51.93
2023-06-05T04:35:01.411Z,51.93
2023-06-05T04:36:01.686Z,52.47
2023-06-05T04:37:01.422Z,50.55
2023-06-05T04:38:01.393Z,52.77
2023-06-05T04:39:01.372Z,51.85
2023-06-05T04:40:01.461Z,55.20
2023-06-05T04:41:01.358Z,56.15
2023-06-05T04:42:14.458Z,53.02
2023-06-05T04:43:02.356Z,53.23
2023-06-05T04:44:01.342Z,53.30
2023-06-05T04:45:01.342Z,54.18
2023-06-05T04:46:01.342Z,53.58
2023-06-05T04:47:01.358Z,52.87
2023-06-05T04:48:01.350Z,52.88
2023-06-05T04:49:02.929Z,51.32
2023-06-05T04:50:01.299Z,57.07
2023-06-05T04:51:01.305Z,55.24
2023-06-05T04:52:01.331Z,54.12
2023-06-05T04:53:01.304Z,53.52
2023-06-05T04:54:01.279Z,53.99
2023-06-05T04:55:01.280Z,54.23
2023-06-05T04:56:01.240Z,52.62
2023-06-05T04:57:01.272Z,54.39
2023-06-05T04:58:01.266Z,54.56
2023-06-05T04:59:01.270Z,56.84
2023-06-05T05:00:01.306Z,56.40
2023-06-05T05:01:53.453Z,50.00
2023-06-05T05:02:50.823Z,50.00
2023-06-05T05:03:50.814Z,50.00
2023-06-05T05:04:50.782Z,50.00
2023-06-05T05:05:50.798Z,50.00
2023-06-05T05:06:50.774Z,50.00
2023-06-05T05:07:50.799Z,50.09
2023-06-05T05:08:50.800Z,50.86
2023-06-05T05:09:50.825Z,50.51
2023-06-05T05:10:50.806Z,50.44
2023-06-05T05:11:50.855Z,51.98
2023-06-05T05:12:50.900Z,50.00
2023-06-05T05:13:50.907Z,52.14
2023-06-05T05:14:50.828Z,52.45
2023-06-05T05:15:50.939Z,53.53
2023-06-05T05:16:51.003Z,53.57
2023-06-05T05:17:50.948Z,53.52
2023-06-05T05:18:50.864Z,54.38
2023-06-05T05:19:50.935Z,55.58
2023-06-05T05:20:50.937Z,53.44
2023-06-05T05:21:50.910Z,55.90
2023-06-05T05:22:50.923Z,55.98
2023-06-05T05:23:50.912Z,58.13
2023-06-05T05:24:50.841Z,60.30
2023-06-05T05:25:50.836Z,60.36
2023-06-05T05:26:50.930Z,60.87
2023-06-05T05:27:50.845Z,62.04
2023-06-05T05:28:50.826Z,63.12
2023-06-05T05:29:50.824Z,63.73
2023-06-05T05:30:50.830Z,64.89
2023-06-05T05:31:50.940Z,63.78
2023-06-05T05:32:50.928Z,65.87
2023-06-05T05:33:50.855Z,66.00
2023-06-05T05:34:50.892Z,63.53
2023-06-05T05:35:50.932Z,66.03
2023-06-05T05:36:50.901Z,65.17
2023-06-05T05:37:50.904Z,62.28
2023-06-05T05:38:50.925Z,66.18
2023-06-05T05:39:50.926Z,70.42
2023-06-05T05:40:53.265Z,70.35
2023-06-05T05:41:51.158Z,70.52
2023-06-05T05:42:51.134Z,71.33
2023-06-05T05:43:51.169Z,73.31
2023-06-05T05:44:51.195Z,76.08
2023-06-05T05:45:51.283Z,82.64
2023-06-05T05:46:51.258Z,84.58
2023-06-05T05:47:51.288Z,87.80
2023-06-05T05:48:51.360Z,83.28
2023-06-05T05:49:51.301Z,84.14
2023-06-05T05:50:51.307Z,88.86
2023-06-05T05:51:51.313Z,89.28
2023-06-05T05:52:51.323Z,92.60
2023-06-05T05:53:51.314Z,99.62
2023-06-05T05:54:51.395Z,105.50
2023-06-05T05:55:51.343Z,103.65
2023-06-05T05:56:51.372Z,106.69
2023-06-05T05:57:51.381Z,112.19
2023-06-05T05:58:51.369Z,110.40
2023-06-05T05:59:51.362Z,113.47
2023-06-05T06:00:51.450Z,111.48
2023-06-05T06:01:51.445Z,112.33
2023-06-05T06:02:51.485Z,112.52
2023-06-05T06:03:51.590Z,122.15
2023-06-05T06:04:51.548Z,122.81
2023-06-05T06:05:51.532Z,132.63
2023-06-05T06:06:51.551Z,142.59
2023-06-05T06:07:51.577Z,158.26
2023-06-05T06:08:51.677Z,155.06
2023-06-05T06:09:51.735Z,152.30
2023-06-05T06:10:51.829Z,160.69
2023-06-05T06:11:51.874Z,162.51
2023-06-05T06:12:51.900Z,161.45
2023-06-05T06:13:51.964Z,164.04
2023-06-05T06:14:52.031Z,161.11
2023-06-05T06:15:52.126Z,161.64
2023-06-05T06:16:52.170Z,159.86
2023-06-05T06:17:52.265Z,161.51
2023-06-05T06:18:52.228Z,166.57
2023-06-05T06:19:52.266Z,168.82
2023-06-05T06:20:52.378Z,171.38
2023-06-05T06:21:52.392Z,175.28
2023-06-05T06:22:52.425Z,179.22
2023-06-05T06:24:55.871Z,50.00
2023-06-05T06:25:55.893Z,50.00
2023-06-05T06:26:55.957Z,50.00
2023-06-05T06:27:55.922Z,50.00
2023-06-05T06:28:55.948Z,50.00
2023-06-05T06:29:55.964Z,52.11
2023-06-05T06:30:56.005Z,52.61
2023-06-05T06:31:56.000Z,53.24
2023-06-05T06:32:56.105Z,57.54
2023-06-05T06:33:56.005Z,56.17
2023-06-05T06:34:56.061Z,56.09
2023-06-05T06:35:56.050Z,59.95
2023-06-05T06:36:56.041Z,61.91
2023-06-05T06:37:56.084Z,61.22
2023-06-05T06:38:57.524Z,62.59
2023-06-05T06:39:56.093Z,69.02
2023-06-05T06:40:56.114Z,69.74
2023-06-05T06:41:56.142Z,70.79
2023-06-05T06:42:56.109Z,71.20
2023-06-05T06:43:56.137Z,72.98
2023-06-05T06:44:56.172Z,73.77
2023-06-05T06:45:56.212Z,78.29
2023-06-05T06:46:56.173Z,82.16
2023-06-05T06:48:07.592Z,76.12
2023-06-05T06:48:57.213Z,76.17
2023-06-05T06:49:56.212Z,70.09
2023-06-05T06:50:56.228Z,65.43
2023-06-05T06:51:56.239Z,55.08
2023-06-05T06:52:56.250Z,47.61
2023-06-05T06:53:56.232Z,53.16
2023-06-05T06:54:56.268Z,54.51
2023-06-05T06:55:56.281Z,53.28
2023-06-05T06:56:56.337Z,51.49
2023-06-05T06:57:56.279Z,52.62
2023-06-05T06:58:56.328Z,51.83
2023-06-05T06:59:56.364Z,50.73
2023-06-05T07:00:56.375Z,51.33
2023-06-05T07:01:56.393Z,53.36
2023-06-05T07:02:56.536Z,54.12
2023-06-05T07:03:56.406Z,53.32
2023-06-05T07:04:56.401Z,50.75
2023-06-05T07:05:56.424Z,50.71
2023-06-05T07:06:56.448Z,50.54
2023-06-05T07:07:56.461Z,50.21
2023-06-05T07:08:56.480Z,50.00
2023-06-05T07:09:56.465Z,51.10
2023-06-05T07:10:56.492Z,50.29
2023-06-05T07:11:56.538Z,50.24
2023-06-05T07:12:56.563Z,50.00
2023-06-05T07:13:56.687Z,50.00
2023-06-05T07:14:56.651Z,50.33
2023-06-05T07:15:56.692Z,50.71
2023-06-05T07:16:56.799Z,50.26
2023-06-05T07:17:56.827Z,51.65
2023-06-05T07:18:56.816Z,53.10
2023-06-05T07:19:56.861Z,52.64
2023-06-05T07:20:56.949Z,51.40
2023-06-05T07:21:56.973Z,50.64
2023-06-05T07:22:57.024Z,50.96
2023-06-05T07:23:57.131Z,50.00
2023-06-05T07:24:57.120Z,50.48
2023-06-05T07:25:57.174Z,50.21
2023-06-05T07:26:57.207Z,50.00
2023-06-05T07:27:57.265Z,51.24
2023-06-05T07:28:57.302Z,51.03
2023-06-05T07:29:57.332Z,50.74
2023-06-05T07:30:57.408Z,51.87
2023-06-05T07:31:57.503Z,51.56
2023-06-05T07:32:57.541Z,51.31
2023-06-05T07:33:57.545Z,51.80
2023-06-05T07:34:57.594Z,50.56
2023-06-05T07:35:57.623Z,50.00
2023-06-05T07:36:57.715Z,50.94
2023-06-05T07:37:57.714Z,51.31
2023-06-05T07:38:57.795Z,50.66
2023-06-05T07:39:57.807Z,50.30
2023-06-05T07:40:57.935Z,51.00
2023-06-05T07:41:57.937Z,50.00
2023-06-05T07:42:58.013Z,50.00
2023-06-05T07:43:58.067Z,50.00
2023-06-05T07:44:58.128Z,61.52
2023-06-05T07:45:58.225Z,77.28
2023-06-05T07:46:58.249Z,79.99
2023-06-05T07:47:58.378Z,76.91
2023-06-05T07:48:58.355Z,72.68
2023-06-05T07:49:58.391Z,72.54
2023-06-05T07:50:58.475Z,64.36
2023-06-05T07:51:58.493Z,67.99
2023-06-05T07:52:58.524Z,72.53
2023-06-05T07:53:58.526Z,74.83
2023-06-05T07:54:58.567Z,79.44
2023-06-05T07:55:58.602Z,69.55
2023-06-05T07:56:58.712Z,61.20
2023-06-05T07:57:58.633Z,69.27
2023-06-05T07:58:58.685Z,67.27
2023-06-05T07:59:58.676Z,74.61
2023-06-05T08:00:58.696Z,78.62
2023-06-05T08:01:58.753Z,75.51
2023-06-05T08:02:58.842Z,75.53
2023-06-05T08:03:58.808Z,75.54
2023-06-05T08:04:58.795Z,74.01
2023-06-05T08:05:58.770Z,75.44
2023-06-05T08:06:58.810Z,82.31
2023-06-05T08:07:58.800Z,81.22
2023-06-05T08:08:58.818Z,78.55
2023-06-05T08:09:58.906Z,84.60
2023-06-05T08:10:58.922Z,86.11
2023-06-05T08:11:59.127Z,89.32
2023-06-05T08:12:58.960Z,79.20
2023-06-05T08:13:58.994Z,86.11
2023-06-05T08:14:59.045Z,90.32
2023-06-05T08:15:59.114Z,88.62
2023-06-05T08:16:59.257Z,92.11
2023-06-05T08:17:59.361Z,95.61
2023-06-05T08:18:59.330Z,96.45
2023-06-05T08:19:59.390Z,96.98
2023-06-05T08:20:59.465Z,98.23
2023-06-05T08:21:59.603Z,97.36
2023-06-05T08:22:59.620Z,99.04
2023-06-05T08:23:59.739Z,99.78
2023-06-05T08:24:59.766Z,100.61
2023-06-05T08:25:59.834Z,103.89
2023-06-05T08:26:59.933Z,99.55
2023-06-05T08:27:59.993Z,100.10
2023-06-05T08:29:00.057Z,98.84
2023-06-05T08:30:00.125Z,97.32
2023-06-05T08:31:00.214Z,99.24
2023-06-05T08:32:00.291Z,96.54
2023-06-05T08:33:00.378Z,99.33
2023-06-05T08:34:00.401Z,101.17
2023-06-05T08:35:00.439Z,94.47
2023-06-05T08:36:00.556Z,50.85
2023-06-05T08:37:00.613Z,37.63
2023-06-05T08:38:00.636Z,52.65
2023-06-05T08:39:00.617Z,54.07
2023-06-05T08:40:00.621Z,47.44
2023-06-05T08:41:00.625Z,49.00
2023-06-05T08:42:00.671Z,51.45
2023-06-05T08:43:00.684Z,72.08
2023-06-05T08:44:00.680Z,68.99
2023-06-05T08:45:03.276Z,69.78
2023-06-05T08:46:00.720Z,88.26
2023-06-05T08:47:00.730Z,59.68
2023-06-05T08:48:00.791Z,62.16
2023-06-05T08:49:00.739Z,63.07
2023-06-05T08:50:00.728Z,56.13
2023-06-05T08:51:00.776Z,50.48
2023-06-05T08:52:00.788Z,40.57
2023-06-05T08:53:00.757Z,57.98
2023-06-05T08:54:00.804Z,112.30
2023-06-05T08:55:00.791Z,123.26
2023-06-05T08:56:00.794Z,129.58
2023-06-05T08:57:00.845Z,131.02
2023-06-05T08:58:00.829Z,138.16
2023-06-05T08:59:00.821Z,144.07
2023-06-05T09:00:00.865Z,157.60
2023-06-05T09:01:00.855Z,160.15
2023-06-05T09:02:00.878Z,168.67
2023-06-05T09:03:00.918Z,179.24
2023-06-05T09:04:00.962Z,190.51
2023-06-05T09:05:00.868Z,192.12
2023-06-05T09:06:00.891Z,192.14
2023-06-05T09:07:00.919Z,193.17
2023-06-05T09:08:00.896Z,195.29
2023-06-05T09:09:00.895Z,200.05
2023-06-05T09:10:00.900Z,200.15
2023-06-05T09:11:00.923Z,196.86
2023-06-05T09:12:00.971Z,196.42
2023-06-05T09:13:00.901Z,200.00
2023-06-05T09:14:00.993Z,199.99
2023-06-05T09:15:00.916Z,199.66
2023-06-05T09:16:00.928Z,198.30
2023-06-05T09:17:00.935Z,200.00
2023-06-05T09:18:00.955Z,197.55
2023-06-05T09:19:00.983Z,199.13
2023-06-05T09:20:00.931Z,189.77
2023-06-05T09:21:00.947Z,195.45
2023-06-05T09:22:00.940Z,194.97
2023-06-05T09:23:01.946Z,190.62
2023-06-05T09:24:00.993Z,193.52
2023-06-05T09:25:00.976Z,195.34
2023-06-05T09:26:00.991Z,195.31
2023-06-05T09:27:01.026Z,199.65
2023-06-05T09:28:01.002Z,197.92
2023-06-05T09:29:01.030Z,200.00
2023-06-05T09:30:01.147Z,199.92
2023-06-05T09:31:01.208Z,199.94
2023-06-05T09:32:01.271Z,199.80
2023-06-05T09:33:01.358Z,196.14
2023-06-05T09:34:01.381Z,194.07
2023-06-05T09:35:01.429Z,194.54
2023-06-05T09:36:01.496Z,194.59
2023-06-05T09:37:01.521Z,197.28
2023-06-05T09:38:02.978Z,199.82
2023-06-05T09:39:01.658Z,199.39
2023-06-05T09:40:01.718Z,197.70
2023-06-05T09:41:01.769Z,188.59
2023-06-05T09:42:01.859Z,195.96
2023-06-05T09:43:01.858Z,190.67
2023-06-05T09:44:01.907Z,191.04
2023-06-05T09:45:01.984Z,182.03
2023-06-05T09:46:02.056Z,145.61
2023-06-05T09:47:02.188Z,97.11
2023-06-05T09:48:02.197Z,58.89
2023-06-05T09:49:02.289Z,54.26
2023-06-05T09:50:02.452Z,66.12
2023-06-05T09:51:02.521Z,99.02
2023-06-05T09:52:02.539Z,131.36
2023-06-05T09:53:02.586Z,146.13
2023-06-05T09:54:02.671Z,150.75
2023-06-05T09:55:02.754Z,153.21
2023-06-05T09:56:02.794Z,157.59
2023-06-05T09:57:02.885Z,165.01
2023-06-05T09:58:02.939Z,168.80
2023-06-05T09:59:02.990Z,171.71
2023-06-05T10:00:03.044Z,173.62
2023-06-05T10:01:03.139Z,174.62
2023-06-05T10:02:03.180Z,173.36
2023-06-05T10:03:03.280Z,177.03
2023-06-05T10:04:03.373Z,178.18
2023-06-05T10:05:03.334Z,180.04
2023-06-05T10:06:03.375Z,179.92
2023-06-05T10:07:03.437Z,181.38
2023-06-05T10:08:03.475Z,181.02
2023-06-05T10:09:03.520Z,182.99
2023-06-05T10:10:03.556Z,184.29
2023-06-05T10:11:03.632Z,186.55
2023-06-05T10:12:03.654Z,188.90
2023-06-05T10:13:03.676Z,192.76
2023-06-05T10:14:03.750Z,193.84
2023-06-05T10:15:03.769Z,192.69
2023-06-05T10:16:04.899Z,194.39
2023-06-05T10:17:03.847Z,194.58
2023-06-05T10:18:03.926Z,194.92
2023-06-05T10:19:03.839Z,194.60
2023-06-05T10:20:03.821Z,192.26
2023-06-05T10:21:03.838Z,191.60
2023-06-05T10:22:03.826Z,193.33
2023-06-05T10:23:03.852Z,191.67
2023-06-05T10:24:04.018Z,195.04
2023-06-05T10:25:03.827Z,197.40
2023-06-05T10:26:03.842Z,198.95
2023-06-05T10:27:03.848Z,200.00
2023-06-05T10:28:03.863Z,199.71
2023-06-05T10:29:03.891Z,198.88
2023-06-05T10:30:03.887Z,200.00
2023-06-05T10:31:03.910Z,199.78
2023-06-05T10:32:04.006Z,199.27
2023-06-05T10:33:03.968Z,198.45
2023-06-05T10:34:03.896Z,200.00
2023-06-05T10:35:03.916Z,198.24
2023-06-05T10:36:03.881Z,193.36
2023-06-05T10:37:03.882Z,183.61
2023-06-05T10:38:03.920Z,174.55
2023-06-05T10:39:03.886Z,163.93
2023-06-05T10:40:03.911Z,175.71
2023-06-05T10:41:03.877Z,183.35
2023-06-05T10:42:03.867Z,192.95
2023-06-05T10:43:03.878Z,197.48
2023-06-05T10:44:03.870Z,191.89
2023-06-05T10:45:03.881Z,195.33
2023-06-05T10:46:08.692Z,195.82
2023-06-05T10:47:04.927Z,195.97
2023-06-05T10:48:03.990Z,196.42
2023-06-05T10:49:03.879Z,197.87
2023-06-05T10:50:03.881Z,199.45
2023-06-05T10:51:03.859Z,201.37
2023-06-05T10:52:04.782Z,199.74
2023-06-05T10:53:03.861Z,198.51
2023-06-05T10:54:03.865Z,197.09
2023-06-05T10:55:03.848Z,196.52
2023-06-05T10:56:03.867Z,196.27
2023-06-05T10:57:03.916Z,193.62
2023-06-05T10:58:03.891Z,188.90
2023-06-05T10:59:03.828Z,190.22
2023-06-05T11:00:03.842Z,191.79
2023-06-05T11:01:03.844Z,192.19
2023-06-05T11:02:03.945Z,194.74
2023-06-05T11:03:03.875Z,195.42
2023-06-05T11:04:03.904Z,200.00
2023-06-05T11:05:03.827Z,197.10
2023-06-05T11:06:03.811Z,196.49
2023-06-05T11:07:03.770Z,193.32
2023-06-05T11:08:03.804Z,189.64
2023-06-05T11:09:03.779Z,188.97
2023-06-05T11:10:03.922Z,189.98
2023-06-05T11:11:03.780Z,189.05
2023-06-05T11:12:03.770Z,191.19
2023-06-05T11:13:03.782Z,194.11
2023-06-05T11:14:03.747Z,195.18
2023-06-05T11:15:03.758Z,194.18
2023-06-05T11:16:03.862Z,193.74
2023-06-05T11:17:03.729Z,184.56
2023-06-05T11:18:03.768Z,186.74
2023-06-05T11:19:03.736Z,188.48
2023-06-05T11:20:03.725Z,191.20
2023-06-05T11:21:03.721Z,190.57
2023-06-05T11:22:03.781Z,192.19
2023-06-05T11:23:03.725Z,194.83
2023-06-05T11:24:03.847Z,196.40
2023-06-05T11:25:03.755Z,196.33
2023-06-05T11:26:03.743Z,199.22
2023-06-05T11:27:03.736Z,193.40
2023-06-05T11:28:03.776Z,190.96
2023-06-05T11:29:03.742Z,182.27
2023-06-05T11:30:03.816Z,188.11
2023-06-05T11:31:03.857Z,184.61
2023-06-05T11:32:03.770Z,179.47
2023-06-05T11:33:03.888Z,179.86
2023-06-05T11:34:03.827Z,177.92
2023-06-05T11:35:03.812Z,174.88
2023-06-05T11:36:03.886Z,172.87
2023-06-05T11:37:03.812Z,169.51
2023-06-05T11:38:04.542Z,168.10
2023-06-05T11:39:03.892Z,167.15
2023-06-05T11:40:03.887Z,165.80
2023-06-05T11:41:03.930Z,151.17
2023-06-05T11:42:03.988Z,156.04
2023-06-05T11:43:03.984Z,157.55
2023-06-05T11:44:04.011Z,159.89
2023-06-05T11:45:04.053Z,161.16
2023-06-05T11:46:04.093Z,152.19
2023-06-05T11:47:04.154Z,156.64
2023-06-05T11:48:04.235Z,159.09
2023-06-05T11:49:04.172Z,159.27
2023-06-05T11:50:04.188Z,158.39
2023-06-05T11:51:04.252Z,157.89
2023-06-05T11:52:04.288Z,156.91
2023-06-05T11:53:05.327Z,153.11
2023-06-05T11:54:04.310Z,150.56
2023-06-05T11:55:04.325Z,151.76
2023-06-05T11:56:04.527Z,153.59
2023-06-05T11:57:04.407Z,153.43
2023-06-05T11:58:04.441Z,154.55
2023-06-05T11:59:04.484Z,154.85
2023-06-05T12:00:04.472Z,155.12
2023-06-05T12:01:04.477Z,165.92
2023-06-05T12:02:04.590Z,190.22
2023-06-05T12:03:04.662Z,171.89
2023-06-05T12:04:04.643Z,162.23
2023-06-05T12:05:04.620Z,156.25
2023-06-05T12:06:04.637Z,159.18
2023-06-05T12:07:04.675Z,159.47
2023-06-05T12:08:04.731Z,160.16
2023-06-05T12:09:04.689Z,162.39
2023-06-05T12:10:04.705Z,160.60
2023-06-05T12:11:04.804Z,158.74
2023-06-05T12:12:04.746Z,156.51
2023-06-05T12:13:04.789Z,155.00
2023-06-05T12:14:04.786Z,160.82
2023-06-05T12:15:04.798Z,166.25
2023-06-05T12:16:04.817Z,163.80
2023-06-05T12:17:04.833Z,161.32
2023-06-05T12:18:04.905Z,161.16
2023-06-05T12:19:13.913Z,150.80
2023-06-05T12:20:05.878Z,150.95
2023-06-05T12:21:04.885Z,148.23
2023-06-05T12:22:04.867Z,147.68
2023-06-05T12:23:04.893Z,143.05
2023-06-05T12:24:04.963Z,133.48
2023-06-05T12:25:19.576Z,138.30
2023-06-05T12:26:05.891Z,138.32
2023-06-05T12:27:04.935Z,138.50
2023-06-05T12:28:04.926Z,135.52
2023-06-05T12:29:04.906Z,134.92
2023-06-05T12:30:04.924Z,135.86
2023-06-05T12:31:04.990Z,135.84
2023-06-05T12:32:04.936Z,134.22
2023-06-05T12:33:05.042Z,130.56
2023-06-05T12:34:04.946Z,124.98
2023-06-05T12:35:07.807Z,129.51
2023-06-05T12:36:04.914Z,132.41
2023-06-05T12:37:04.918Z,129.96
2023-06-05T12:38:04.943Z,125.17
2023-06-05T12:39:04.962Z,119.36
2023-06-05T12:40:04.941Z,121.93
2023-06-05T12:41:05.531Z,115.83
2023-06-05T12:42:04.959Z,113.66
2023-06-05T12:43:05.011Z,109.34
2023-06-05T12:44:04.987Z,100.55
2023-06-05T12:45:04.997Z,103.52